createdAt,value
2022-10-06T00:00:23.923Z,11.57
2022-10-06T00:03:15.010Z,11.59
2022-10-06T00:05:45.037Z,11.60
2022-10-06T00:08:14.273Z,11.54
2022-10-06T00:10:43.386Z,11.55
2022-10-06T00:13:12.693Z,11.51
2022-10-06T00:15:41.900Z,11.48
2022-10-06T00:18:11.044Z,11.48
2022-10-06T00:20:43.422Z,11.50
2022-10-06T00:23:12.592Z,11.50
2022-10-06T00:25:41.894Z,11.50
2022-10-06T00:28:11.079Z,11.48
2022-10-06T00:30:40.241Z,11.48
2022-10-06T00:33:13.108Z,11.49
2022-10-06T00:35:44.872Z,11.51
2022-10-06T00:38:15.993Z,11.50
2022-10-06T00:40:46.883Z,11.50
2022-10-06T00:43:43.227Z,11.50
2022-10-06T00:46:16.909Z,11.51
2022-10-06T00:48:49.484Z,11.45
2022-10-06T00:51:21.159Z,11.45
2022-10-06T00:53:51.504Z,11.45
2022-10-06T00:56:20.689Z,11.39
2022-10-06T00:58:51.383Z,11.40
2022-10-06T01:01:21.020Z,11.40
2022-10-06T01:03:56.547Z,11.43
2022-10-06T01:06:27.256Z,11.45
2022-10-06T01:08:56.873Z,11.44
2022-10-06T01:11:26.515Z,11.42
2022-10-06T01:13:55.699Z,11.35
2022-10-06T01:16:27.104Z,11.38
2022-10-06T01:18:58.408Z,11.35
2022-10-06T01:21:31.591Z,11.32
2022-10-06T01:24:05.757Z,11.33
2022-10-06T01:26:37.796Z,11.35
2022-10-06T01:29:07.531Z,11.37
2022-10-06T01:31:36.958Z,11.36
2022-10-06T01:34:07.111Z,11.32
2022-10-06T01:36:36.489Z,11.31
2022-10-06T01:39:07.106Z,11.28
2022-10-06T01:41:36.291Z,11.26
2022-10-06T01:44:06.040Z,11.28
2022-10-06T01:46:35.202Z,11.27
2022-10-06T01:49:04.325Z,11.27
2022-10-06T01:51:33.800Z,11.27
2022-10-06T01:54:03.037Z,11.28
2022-10-06T01:56:33.562Z,11.30
2022-10-06T01:59:02.921Z,11.32
2022-10-06T02:01:32.216Z,11.33
2022-10-06T02:04:01.406Z,11.34
2022-10-06T02:06:30.863Z,11.34
2022-10-06T02:09:01.722Z,11.33
2022-10-06T02:11:32.886Z,11.32
2022-10-06T02:14:02.797Z,11.29
2022-10-06T02:16:33.288Z,11.27
2022-10-06T02:19:03.679Z,11.27
2022-10-06T02:21:32.819Z,11.24
2022-10-06T02:24:02.144Z,11.24
2022-10-06T02:26:33.229Z,11.23
2022-10-06T02:29:02.371Z,11.23
2022-10-06T02:31:31.836Z,11.22
2022-10-06T02:34:01.202Z,11.22
2022-10-06T02:36:31.023Z,11.19
2022-10-06T02:39:00.553Z,11.18
2022-10-06T02:41:31.004Z,11.18
2022-10-06T02:44:01.841Z,11.16
2022-10-06T02:46:32.654Z,11.16
2022-10-06T02:49:01.815Z,11.18
2022-10-06T02:51:33.874Z,11.22
2022-10-06T02:54:03.602Z,11.19
2022-10-06T02:56:32.751Z,11.13
2022-10-06T02:59:03.297Z,11.14
2022-10-06T03:01:36.338Z,11.11
2022-10-06T03:04:13.338Z,11.09
2022-10-06T03:06:44.218Z,11.08
2022-10-06T03:09:25.183Z,11.06
2022-10-06T03:11:55.881Z,11.05
2022-10-06T03:14:38.621Z,11.03
2022-10-06T03:17:10.474Z,11.03
2022-10-06T03:19:45.843Z,11.01
2022-10-06T03:22:16.203Z,11.02
2022-10-06T03:24:51.887Z,11.01
2022-10-06T03:27:21.253Z,10.98
2022-10-06T03:29:52.688Z,10.94
2022-10-06T03:32:24.892Z,10.92
2022-10-06T03:34:54.431Z,10.88
2022-10-06T03:37:23.856Z,10.90
2022-10-06T03:39:53.785Z,10.89
2022-10-06T03:42:22.930Z,10.94
2022-10-06T03:44:53.483Z,10.95
2022-10-06T03:47:22.916Z,10.98
2022-10-06T03:49:52.057Z,11.05
2022-10-06T03:52:25.165Z,11.10
2022-10-06T03:54:55.892Z,11.18
2022-10-06T03:57:25.651Z,11.25
2022-10-06T03:59:59.868Z,11.31
2022-10-06T04:02:29.362Z,11.37
2022-10-06T04:04:58.536Z,11.44
2022-10-06T04:07:27.919Z,11.49
2022-10-06T04:09:57.063Z,11.56
2022-10-06T04:12:26.228Z,11.60
2022-10-06T04:15:00.123Z,11.67
2022-10-06T04:17:30.087Z,11.73
2022-10-06T04:19:59.461Z,11.79
2022-10-06T04:22:28.600Z,11.83
2022-10-06T04:24:57.769Z,11.88
2022-10-06T04:27:29.975Z,11.96
2022-10-06T04:30:20.830Z,12.00
2022-10-06T04:32:50.438Z,12.04
2022-10-06T04:35:20.699Z,12.09
2022-10-06T04:37:50.006Z,12.11
2022-10-06T04:40:19.892Z,12.15
2022-10-06T04:42:49.912Z,12.17
2022-10-06T04:45:20.466Z,12.22
2022-10-06T04:47:51.109Z,12.28
2022-10-06T04:50:20.359Z,12.32
2022-10-06T04:53:07.092Z,12.36
2022-10-06T04:55:36.220Z,12.40
2022-10-06T04:58:06.060Z,12.44
2022-10-06T05:00:36.871Z,12.50
2022-10-06T05:03:06.020Z,12.52
2022-10-06T05:05:35.323Z,12.55
2022-10-06T05:08:04.732Z,12.59
2022-10-06T05:10:33.894Z,12.63
2022-10-06T05:13:03.804Z,12.63
2022-10-06T05:15:33.117Z,12.63
2022-10-06T05:18:03.941Z,12.67
2022-10-06T05:20:33.329Z,12.69
2022-10-06T05:23:02.562Z,12.73
2022-10-06T05:25:31.987Z,12.73
2022-10-06T05:28:01.152Z,12.74
2022-10-06T05:30:30.344Z,12.77
2022-10-06T05:32:59.717Z,12.82
2022-10-06T05:35:30.371Z,12.83
2022-10-06T05:37:59.508Z,12.82
2022-10-06T05:40:28.907Z,12.82
2022-10-06T05:42:58.384Z,12.86
2022-10-06T05:45:27.551Z,12.88
2022-10-06T05:47:56.999Z,12.93
2022-10-06T05:50:26.239Z,12.95
2022-10-06T05:52:57.958Z,12.97
2022-10-06T05:55:27.782Z,13.02
2022-10-06T05:57:57.128Z,13.08
2022-10-06T06:00:26.730Z,13.06
2022-10-06T06:02:56.153Z,13.12
2022-10-06T06:05:25.422Z,13.12
2022-10-06T06:07:56.176Z,13.17
2022-10-06T06:10:25.528Z,13.27
2022-10-06T06:12:54.660Z,13.36
2022-10-06T06:15:52.170Z,13.46
2022-10-06T06:18:21.405Z,13.50
2022-10-06T06:20:57.708Z,13.63
2022-10-06T06:23:33.722Z,13.71
2022-10-06T06:26:05.059Z,13.82
2022-10-06T06:28:37.358Z,13.92
2022-10-06T06:31:08.801Z,13.97
2022-10-06T06:33:39.408Z,14.07
2022-10-06T06:36:15.096Z,14.13
2022-10-06T06:38:49.856Z,14.11
2022-10-06T06:41:21.373Z,14.23
2022-10-06T06:43:52.942Z,14.24
2022-10-06T06:49:12.268Z,14.25
2022-10-06T06:51:49.904Z,14.29
2022-10-06T06:54:22.938Z,14.41
2022-10-06T06:56:56.741Z,14.51
2022-10-06T06:59:26.801Z,14.56
2022-10-06T07:01:58.763Z,14.70
2022-10-06T07:04:30.497Z,14.75
2022-10-06T07:06:59.978Z,14.78
2022-10-06T07:09:33.792Z,14.84
2022-10-06T07:12:11.475Z,14.87
2022-10-06T07:15:04.299Z,14.96
2022-10-06T07:17:56.390Z,14.99
2022-10-06T07:20:43.285Z,15.07
2022-10-06T07:23:35.493Z,15.06
2022-10-06T07:26:08.350Z,15.12
2022-10-06T07:28:37.814Z,15.14
2022-10-06T07:31:07.334Z,15.17
2022-10-06T07:33:37.121Z,15.16
2022-10-06T07:36:07.787Z,15.29
2022-10-06T07:38:37.647Z,15.41
2022-10-06T07:41:18.941Z,15.51
2022-10-06T07:44:07.967Z,15.55
2022-10-06T07:46:38.472Z,15.56
2022-10-06T07:49:14.879Z,15.55
2022-10-06T07:51:44.185Z,15.54
2022-10-06T07:54:13.585Z,15.51
2022-10-06T07:56:57.439Z,15.50
2022-10-06T07:59:26.889Z,15.41
2022-10-06T08:01:56.080Z,15.33
2022-10-06T08:04:25.287Z,15.08
2022-10-06T08:06:58.428Z,15.14
2022-10-06T08:09:27.585Z,15.18
2022-10-06T08:11:58.420Z,15.15
2022-10-06T08:14:27.499Z,15.33
2022-10-06T08:16:57.501Z,15.45
2022-10-06T08:19:26.544Z,15.53
2022-10-06T08:21:55.601Z,15.65
2022-10-06T08:24:25.231Z,15.72
2022-10-06T08:26:58.772Z,15.87
2022-10-06T08:29:27.825Z,15.91
2022-10-06T08:31:59.425Z,15.99
2022-10-06T08:34:28.823Z,16.00
2022-10-06T08:37:20.728Z,16.05
2022-10-06T08:39:47.840Z,16.12
2022-10-06T08:42:26.619Z,16.23
2022-10-06T08:45:00.467Z,16.31
2022-10-06T08:47:33.546Z,16.35
2022-10-06T08:50:05.305Z,16.45
2022-10-06T08:52:55.680Z,16.59
2022-10-06T08:55:35.373Z,16.72
2022-10-06T08:58:21.250Z,16.74
2022-10-06T09:00:56.750Z,16.89
2022-10-06T09:03:31.071Z,17.02
2022-10-06T09:06:10.807Z,17.10
2022-10-06T09:08:51.653Z,17.23
2022-10-06T09:11:46.313Z,17.37
2022-10-06T09:14:22.582Z,17.34
2022-10-06T09:16:58.180Z,17.23
2022-10-06T09:19:35.336Z,17.23
2022-10-06T09:22:07.948Z,17.08
2022-10-06T09:24:46.368Z,17.09
2022-10-06T09:27:21.139Z,17.00
2022-10-06T09:29:52.603Z,16.88
2022-10-06T09:32:24.066Z,16.50
2022-10-06T09:34:56.247Z,16.48
2022-10-06T09:37:25.971Z,16.55
2022-10-06T09:39:56.114Z,16.58
2022-10-06T09:42:28.308Z,16.67
2022-10-06T09:45:04.972Z,16.74
2022-10-06T09:47:40.551Z,16.74
2022-10-06T09:50:22.778Z,16.69
2022-10-06T09:53:18.499Z,16.67
2022-10-06T09:55:57.605Z,16.74
2022-10-06T09:58:34.756Z,16.87
2022-10-06T10:01:09.197Z,16.93
2022-10-06T10:04:15.689Z,17.12
2022-10-06T10:06:41.768Z,17.13
2022-10-06T10:09:27.043Z,16.93
2022-10-06T10:12:28.012Z,17.03
2022-10-06T10:15:02.024Z,17.18
2022-10-06T10:17:45.953Z,17.23
2022-10-06T10:20:29.199Z,17.02
2022-10-06T10:23:00.604Z,16.99
2022-10-06T10:25:45.656Z,17.08
2022-10-06T10:28:44.393Z,17.13
2022-10-06T10:31:18.769Z,17.16
2022-10-06T10:34:12.510Z,16.98
2022-10-06T10:36:51.063Z,17.22
2022-10-06T10:39:29.192Z,17.00
2022-10-06T10:42:02.949Z,17.22
2022-10-06T10:44:36.115Z,17.36
2022-10-06T10:47:16.177Z,17.44
2022-10-06T10:49:54.150Z,17.56
2022-10-06T10:52:29.034Z,17.54
2022-10-06T10:55:06.904Z,17.91
2022-10-06T10:57:41.711Z,17.90
2022-10-06T11:00:19.429Z,17.94
2022-10-06T11:02:49.349Z,18.25
2022-10-06T11:05:28.931Z,17.68
2022-10-06T11:08:05.395Z,17.56
2022-10-06T11:10:43.462Z,17.51
2022-10-06T11:13:24.257Z,17.41
2022-10-06T11:16:29.692Z,17.37
2022-10-06T11:19:16.774Z,17.46
2022-10-06T11:21:59.325Z,17.35
2022-10-06T11:24:39.082Z,17.60
2022-10-06T11:27:18.717Z,17.69
2022-10-06T11:29:58.643Z,17.65
2022-10-06T11:32:36.671Z,17.82
2022-10-06T11:35:16.890Z,17.92
2022-10-06T11:37:54.895Z,17.88
2022-10-06T11:40:48.986Z,18.09
2022-10-06T11:43:28.445Z,18.21
2022-10-06T11:46:05.610Z,18.43
2022-10-06T11:48:35.274Z,18.72
2022-10-06T11:51:28.707Z,18.67
2022-10-06T11:53:59.885Z,18.59
2022-10-06T11:56:46.807Z,18.77
2022-10-06T11:59:31.672Z,18.96
2022-10-06T12:02:02.171Z,19.15
2022-10-06T12:04:31.851Z,19.16
2022-10-06T12:07:05.179Z,19.08
2022-10-06T12:09:52.670Z,18.76
2022-10-06T12:13:01.860Z,18.27
2022-10-06T12:19:16.909Z,18.19
2022-10-06T12:21:59.476Z,18.07
2022-10-06T12:24:46.287Z,18.07
2022-10-06T12:27:33.691Z,17.98
2022-10-06T12:30:07.347Z,18.20
2022-10-06T12:32:50.796Z,18.16
2022-10-06T12:35:41.078Z,18.36
2022-10-06T12:38:44.929Z,18.53
2022-10-06T12:41:37.428Z,18.32
2022-10-06T12:44:24.644Z,18.04
2022-10-06T12:46:55.389Z,18.20
2022-10-06T12:49:47.872Z,18.17
2022-10-06T12:52:32.971Z,18.25
2022-10-06T12:55:16.858Z,18.14
2022-10-06T12:57:52.080Z,18.11
2022-10-06T13:00:31.400Z,18.15
2022-10-06T13:03:01.479Z,18.20
2022-10-06T13:05:31.397Z,18.26
2022-10-06T13:08:01.775Z,18.10
2022-10-06T13:10:32.914Z,17.95
2022-10-06T13:13:03.829Z,18.05
2022-10-06T13:15:34.883Z,18.02
2022-10-06T13:18:13.039Z,17.95
2022-10-06T13:20:44.608Z,17.73
2022-10-06T13:23:30.075Z,17.76
2022-10-06T13:26:00.959Z,17.75
2022-10-06T13:28:46.907Z,17.77
2022-10-06T13:31:21.800Z,17.72
2022-10-06T13:33:55.555Z,17.78
2022-10-06T13:36:25.482Z,17.85
2022-10-06T13:38:54.556Z,17.88
2022-10-06T13:41:28.894Z,17.99
2022-10-06T13:44:02.988Z,18.04
2022-10-06T13:46:39.148Z,18.13
2022-10-06T13:49:19.571Z,17.80
2022-10-06T13:51:49.832Z,17.83
2022-10-06T13:54:29.422Z,17.94
2022-10-06T13:56:59.095Z,17.96
2022-10-06T13:59:33.027Z,17.88
2022-10-06T14:02:21.563Z,17.81
2022-10-06T14:05:22.750Z,17.87
2022-10-06T14:07:52.831Z,17.84
2022-10-06T14:10:31.263Z,17.80
2022-10-06T14:13:02.208Z,17.84
2022-10-06T14:15:39.451Z,17.60
2022-10-06T14:18:08.567Z,17.81
2022-10-06T14:20:41.379Z,17.67
2022-10-06T14:23:50.383Z,17.79
2022-10-06T14:26:21.402Z,17.76
2022-10-06T14:28:52.933Z,17.56
2022-10-06T14:31:25.692Z,17.56
2022-10-06T14:33:57.004Z,17.59
2022-10-06T14:36:28.316Z,17.42
2022-10-06T14:38:58.569Z,17.56
2022-10-06T14:41:29.819Z,17.55
2022-10-06T14:44:01.567Z,17.47
2022-10-06T14:46:32.705Z,17.32
2022-10-06T14:49:03.266Z,17.36
2022-10-06T14:51:36.538Z,17.47
2022-10-06T14:54:07.555Z,17.38
2022-10-06T14:56:39.079Z,17.21
2022-10-06T14:59:10.453Z,17.24
2022-10-06T15:01:41.559Z,17.06
2022-10-06T15:04:15.148Z,16.96
2022-10-06T15:07:02.343Z,16.71
2022-10-06T15:09:31.857Z,16.84
2022-10-06T15:12:24.501Z,16.72
2022-10-06T15:14:58.724Z,16.68
2022-10-06T15:17:30.218Z,16.61
2022-10-06T15:19:59.476Z,16.62
2022-10-06T15:22:31.235Z,16.37
2022-10-06T15:25:03.279Z,16.26
2022-10-06T15:27:49.967Z,16.06
2022-10-06T15:30:19.686Z,15.80
2022-10-06T15:32:51.121Z,15.91
2022-10-06T15:35:20.323Z,15.83
2022-10-06T15:37:49.653Z,15.76
2022-10-06T15:40:19.140Z,15.67
2022-10-06T15:42:49.485Z,15.68
2022-10-06T15:45:19.432Z,15.44
2022-10-06T15:47:52.847Z,15.49
2022-10-06T15:50:22.202Z,15.45
2022-10-06T15:52:51.450Z,15.44
2022-10-06T15:55:20.735Z,15.32
2022-10-06T15:57:49.805Z,15.09
2022-10-06T16:00:19.314Z,15.16
2022-10-06T16:02:49.948Z,15.14
2022-10-06T16:05:45.410Z,15.13
2022-10-06T16:08:14.489Z,14.94
2022-10-06T16:10:43.829Z,15.06
2022-10-06T16:13:13.461Z,15.02
2022-10-06T16:15:42.547Z,14.92
2022-10-06T16:18:13.575Z,14.99
2022-10-06T16:20:42.876Z,14.90
2022-10-06T16:23:12.139Z,14.81
2022-10-06T16:25:41.266Z,14.77
2022-10-06T16:28:10.438Z,14.68
2022-10-06T16:30:40.532Z,14.61
2022-10-06T16:33:09.796Z,14.65
2022-10-06T16:35:43.065Z,14.60
2022-10-06T16:38:13.689Z,14.51
2022-10-06T16:40:43.708Z,14.42
2022-10-06T16:43:13.407Z,14.43
2022-10-06T16:45:42.792Z,14.42
2022-10-06T16:48:12.477Z,14.36
2022-10-06T16:50:46.066Z,14.29
2022-10-06T16:53:17.261Z,14.27
2022-10-06T16:55:47.520Z,14.14
2022-10-06T16:58:24.965Z,14.11
2022-10-06T17:01:12.166Z,14.07
2022-10-06T17:03:54.915Z,14.03
2022-10-06T17:06:42.275Z,14.02
2022-10-06T17:09:19.764Z,13.91
2022-10-06T17:11:56.612Z,13.81
2022-10-06T17:14:31.510Z,13.82
2022-10-06T17:17:00.923Z,13.79
2022-10-06T17:19:31.250Z,13.84
2022-10-06T17:22:01.722Z,13.80
2022-10-06T17:24:31.335Z,13.81
2022-10-06T17:27:01.083Z,13.86
2022-10-06T17:29:30.184Z,13.94
2022-10-06T17:32:00.590Z,13.93
2022-10-06T17:34:32.879Z,13.92
2022-10-06T17:37:04.415Z,13.91
2022-10-06T17:39:33.820Z,13.88
2022-10-06T17:42:02.878Z,13.86
2022-10-06T17:44:31.963Z,13.86
2022-10-06T17:47:02.011Z,13.84
2022-10-06T17:49:34.689Z,13.80
2022-10-06T17:52:05.875Z,13.76
2022-10-06T17:54:34.963Z,13.70
2022-10-06T17:57:04.247Z,13.67
2022-10-06T17:59:33.889Z,13.60
2022-10-06T18:02:07.185Z,13.55
2022-10-06T18:04:37.361Z,13.51
2022-10-06T18:07:08.503Z,13.46
2022-10-06T18:09:37.806Z,13.44
2022-10-06T18:12:07.680Z,13.40
2022-10-06T18:14:36.746Z,13.36
2022-10-06T18:17:06.495Z,13.33
2022-10-06T18:19:37.114Z,13.28
2022-10-06T18:22:10.725Z,13.25
2022-10-06T18:24:40.514Z,13.20
2022-10-06T18:27:10.192Z,13.21
2022-10-06T18:29:40.266Z,13.16
2022-10-06T18:33:10.788Z,13.12
2022-10-06T18:37:53.149Z,13.09
2022-10-06T18:40:25.666Z,13.05
2022-10-06T18:42:54.785Z,13.01
2022-10-06T18:45:41.057Z,12.98
2022-10-06T18:48:27.997Z,12.98
2022-10-06T18:51:03.611Z,12.96
2022-10-06T18:53:38.352Z,12.96
2022-10-06T18:56:07.960Z,12.94
2022-10-06T18:58:40.877Z,12.93
2022-10-06T19:01:10.248Z,12.90
2022-10-06T19:03:39.939Z,12.90
2022-10-06T19:06:09.404Z,12.90
2022-10-06T19:08:40.296Z,12.84
2022-10-06T19:11:27.420Z,12.83
2022-10-06T19:13:57.943Z,12.82
2022-10-06T19:16:27.347Z,12.77
2022-10-06T19:18:56.528Z,12.72
2022-10-06T19:21:25.955Z,12.69
2022-10-06T19:23:57.955Z,12.67
2022-10-06T19:26:27.334Z,12.65
2022-10-06T19:28:59.414Z,12.64
2022-10-06T19:31:30.046Z,12.65
2022-10-06T19:34:00.793Z,12.60
2022-10-06T19:36:30.575Z,12.58
2022-10-06T19:39:02.743Z,12.57
2022-10-06T19:41:50.333Z,12.53
2022-10-06T19:44:19.488Z,12.52
2022-10-06T19:46:48.838Z,12.52
2022-10-06T19:49:19.883Z,12.50
2022-10-06T19:51:50.671Z,12.43
2022-10-06T19:54:22.482Z,12.40
2022-10-06T19:56:51.915Z,12.34
2022-10-06T19:59:22.575Z,12.31
2022-10-06T20:01:53.101Z,12.28
2022-10-06T20:04:23.707Z,12.27
2022-10-06T20:06:53.311Z,12.16
2022-10-06T20:09:25.343Z,12.22
2022-10-06T20:11:54.922Z,12.18
2022-10-06T20:14:26.420Z,12.14
2022-10-06T20:16:57.580Z,12.02
2022-10-06T20:19:26.842Z,12.08
2022-10-06T20:21:56.426Z,12.08
2022-10-06T20:24:27.883Z,12.07
2022-10-06T20:26:57.252Z,12.08
2022-10-06T20:29:28.123Z,11.99
2022-10-06T20:31:58.885Z,11.97
2022-10-06T20:34:32.055Z,11.95
2022-10-06T20:37:02.613Z,11.94
2022-10-06T20:39:52.350Z,11.94
2022-10-06T20:42:22.187Z,11.88
2022-10-06T20:44:51.530Z,11.87
2022-10-06T20:47:21.232Z,11.85
2022-10-06T20:49:54.957Z,11.77
2022-10-06T20:52:24.294Z,11.69
2022-10-06T20:54:55.136Z,11.64
2022-10-06T20:57:24.262Z,11.62
2022-10-06T20:59:53.516Z,11.64
2022-10-06T21:02:23.353Z,11.64
2022-10-06T21:04:52.718Z,11.65
2022-10-06T21:07:21.905Z,11.64
2022-10-06T21:09:52.334Z,11.63
2022-10-06T21:12:23.106Z,11.65
2022-10-06T21:14:52.548Z,11.56
2022-10-06T21:17:21.821Z,11.56
2022-10-06T21:19:51.023Z,11.51
2022-10-06T21:22:20.448Z,11.53
2022-10-06T21:24:49.638Z,11.54
2022-10-06T21:27:19.213Z,11.53
2022-10-06T21:29:50.099Z,11.52
2022-10-06T21:32:19.671Z,11.53
2022-10-06T21:34:49.110Z,11.47
2022-10-06T21:37:18.906Z,11.42
2022-10-06T21:39:48.402Z,11.42
2022-10-06T21:42:17.695Z,11.43
2022-10-06T21:44:48.621Z,11.40
2022-10-06T21:47:17.972Z,11.42
2022-10-06T21:49:47.738Z,11.40
2022-10-06T21:52:17.299Z,11.40
2022-10-06T21:54:46.975Z,11.35
2022-10-06T21:57:16.550Z,11.39
2022-10-06T21:59:49.323Z,11.36
2022-10-06T22:02:21.013Z,11.32
2022-10-06T22:04:52.078Z,11.22
2022-10-06T22:07:21.542Z,11.19
2022-10-06T22:09:51.743Z,11.30
2022-10-06T22:12:21.912Z,11.32
2022-10-06T22:14:51.379Z,11.36
2022-10-06T22:17:21.986Z,11.35
2022-10-06T22:19:51.491Z,11.22
2022-10-06T22:22:20.959Z,11.23
2022-10-06T22:24:50.169Z,11.30
2022-10-06T22:27:19.427Z,11.27
2022-10-06T22:29:48.823Z,11.27
2022-10-06T22:32:18.374Z,11.25
2022-10-06T22:34:49.081Z,11.27
2022-10-06T22:37:18.635Z,11.23
2022-10-06T22:39:47.818Z,11.23
2022-10-06T22:42:17.025Z,11.19
2022-10-06T22:44:46.433Z,11.21
2022-10-06T22:47:17.596Z,11.08
2022-10-06T22:49:48.193Z,11.14
2022-10-06T22:52:17.744Z,11.07
2022-10-06T22:54:46.920Z,11.16
2022-10-06T22:57:16.085Z,11.12
2022-10-06T22:59:45.477Z,11.03
2022-10-06T23:02:14.646Z,11.15
2022-10-06T23:04:43.816Z,11.10
2022-10-06T23:07:14.614Z,11.15
2022-10-06T23:09:43.844Z,11.17
2022-10-06T23:12:13.019Z,11.16
2022-10-06T23:14:42.422Z,11.02
2022-10-06T23:17:11.607Z,11.01
2022-10-06T23:19:40.811Z,10.97
2022-10-06T23:22:10.237Z,10.97
2022-10-06T23:24:40.854Z,11.02
2022-10-06T23:27:10.042Z,11.06
2022-10-06T23:29:39.431Z,11.07
2022-10-06T23:32:08.654Z,11.08
2022-10-06T23:34:37.878Z,10.98
2022-10-06T23:37:07.284Z,10.99
2022-10-06T23:39:36.485Z,11.07
2022-10-06T23:42:09.650Z,11.12
2022-10-06T23:44:40.324Z,11.15
2022-10-06T23:47:09.731Z,11.13
2022-10-06T23:49:38.905Z,11.16
2022-10-06T23:52:08.280Z,11.15
2022-10-06T23:54:37.486Z,11.14
2022-10-06T23:57:08.050Z,11.12
2022-10-06T23:59:37.490Z,11.12
